createdAt,value
2023-02-16T00:01:15.782Z,18.6
2023-02-16T00:06:55.102Z,18.6
2023-02-16T00:12:17.971Z,18.6
2023-02-16T00:17:40.356Z,18.6
2023-02-16T00:23:02.584Z,18.6
2023-02-16T00:28:40.860Z,18.6
2023-02-16T00:34:19.919Z,18.6
2023-02-16T00:39:42.067Z,18.5
2023-02-16T00:45:04.176Z,18.5
2023-02-16T00:50:11.400Z,18.5
2023-02-16T00:55:41.868Z,18.5
2023-02-16T01:01:19.502Z,18.5
2023-02-16T01:06:57.570Z,18.5
2023-02-16T01:12:34.708Z,18.5
2023-02-16T01:18:10.197Z,18.5
2023-02-16T01:23:32.499Z,18.5
2023-02-16T01:29:11.132Z,18.4
2023-02-16T01:34:49.689Z,18.4
2023-02-16T01:40:27.018Z,18.4
2023-02-16T01:45:49.041Z,18.4
2023-02-16T01:51:27.103Z,18.4
2023-02-16T01:57:03.730Z,18.4
2023-02-16T02:02:41.165Z,18.4
2023-02-16T02:08:18.268Z,18.4
2023-02-16T02:13:55.283Z,18.4
2023-02-16T02:19:18.430Z,18.4
2023-02-16T02:24:40.059Z,18.4
2023-02-16T02:30:17.130Z,18.4
2023-02-16T02:35:56.708Z,18.4
2023-02-16T02:41:34.231Z,18.4
2023-02-16T02:47:11.511Z,18.4
2023-02-16T02:52:32.842Z,18.4
2023-02-16T02:58:10.238Z,18.4
2023-02-16T03:03:15.889Z,18.4
2023-02-16T03:08:38.426Z,18.3
2023-02-16T03:13:45.102Z,18.3
2023-02-16T03:19:07.109Z,18.3
2023-02-16T03:24:44.904Z,18.3
2023-02-16T03:30:23.378Z,18.3
2023-02-16T03:36:01.761Z,18.3
2023-02-16T03:41:39.618Z,18.3
2023-02-16T03:47:16.457Z,18.3
2023-02-16T03:52:22.810Z,18.3
2023-02-16T03:58:00.873Z,18.3
2023-02-16T04:03:40.831Z,18.3
2023-02-16T04:09:03.297Z,18.3
2023-02-16T04:14:43.551Z,18.3
2023-02-16T04:20:20.334Z,18.3
2023-02-16T04:25:41.738Z,18.3
2023-02-16T04:31:20.822Z,18.3
2023-02-16T04:36:59.737Z,18.3
2023-02-16T04:42:22.589Z,18.2
2023-02-16T04:48:01.266Z,18.2
2023-02-16T04:53:38.430Z,18.2
2023-02-16T04:58:59.736Z,18.2
2023-02-16T05:04:38.411Z,18.2
2023-02-16T05:10:16.237Z,18.2
2023-02-16T05:15:54.553Z,18.2
2023-02-16T05:21:17.132Z,18.2
2023-02-16T05:26:55.592Z,18.2
2023-02-16T05:32:37.245Z,18.2
2023-02-16T05:38:15.330Z,18.2
2023-02-16T05:43:53.109Z,18.2
2023-02-16T05:49:32.132Z,18.2
2023-02-16T05:55:09.285Z,18.2
2023-02-16T06:00:46.521Z,18.2
2023-02-16T06:06:25.523Z,18.2
2023-02-16T06:12:02.140Z,18.2
2023-02-16T06:17:39.427Z,18.1
2023-02-16T06:23:16.252Z,18.1
2023-02-16T06:28:54.193Z,18.1
2023-02-16T06:34:34.045Z,18.1
2023-02-16T06:40:11.524Z,18.1
2023-02-16T06:45:49.766Z,18.1
2023-02-16T06:51:29.380Z,18.1
2023-02-16T06:56:54.237Z,18.1
2023-02-16T07:02:34.830Z,18.1
2023-02-16T07:07:55.492Z,18.1
2023-02-16T07:13:40.431Z,18.1
2023-02-16T07:19:18.450Z,18.1
2023-02-16T07:24:55.168Z,18.1
2023-02-16T07:30:32.508Z,18.1
2023-02-16T07:36:12.260Z,18.1
2023-02-16T07:41:49.801Z,15.2
2023-02-16T07:47:27.892Z,42.6
2023-02-16T07:53:06.185Z,38.7
2023-02-16T07:58:43.113Z,34.1
2023-02-16T08:04:25.329Z,34.8
2023-02-16T08:10:04.818Z,45.3
2023-02-16T08:15:42.418Z,43.4
2023-02-16T08:21:50.547Z,41.6
2023-02-16T08:26:58.296Z,42.9
2023-02-16T08:32:21.454Z,44.3
2023-02-16T08:37:59.060Z,45.8
2023-02-16T08:43:37.445Z,47.2
2023-02-16T08:49:15.582Z,48.2
2023-02-16T08:54:55.232Z,49.3
2023-02-16T09:00:35.247Z,50.3
2023-02-16T09:06:13.075Z,51.6
2023-02-16T09:16:43.942Z,53.1
2023-02-16T09:22:06.742Z,54.1
2023-02-16T09:27:44.361Z,54.8
2023-02-16T09:33:22.363Z,55.8
2023-02-16T09:38:59.065Z,56.8
2023-02-16T09:44:36.532Z,57.3
2023-02-16T09:50:14.983Z,57.1
2023-02-16T09:56:23.389Z,57.7
2023-02-16T10:02:02.681Z,58.8
2023-02-16T10:07:09.535Z,59.3
2023-02-16T10:12:31.387Z,59.4
2023-02-16T10:18:10.783Z,59.9
2023-02-16T10:23:47.426Z,60.4
2023-02-16T10:29:23.829Z,60.9
2023-02-16T10:35:02.494Z,61.3
2023-02-16T10:40:39.768Z,61.5
2023-02-16T10:46:19.655Z,61.7
2023-02-16T10:51:41.825Z,62
2023-02-16T10:57:19.607Z,62.3
2023-02-16T11:02:56.546Z,62.4
2023-02-16T11:08:37.963Z,62.4
2023-02-16T11:14:00.113Z,62.4
2023-02-16T11:19:37.073Z,62.7
2023-02-16T11:25:14.212Z,62.8
2023-02-16T11:30:51.993Z,62.6
2023-02-16T11:36:29.466Z,62.3
2023-02-16T11:42:22.662Z,62.1
2023-02-16T11:47:45.258Z,62.2
2023-02-16T11:53:22.566Z,62
2023-02-16T11:59:00.334Z,61.8
2023-02-16T12:04:38.872Z,62.1
2023-02-16T12:10:16.578Z,61.7
2023-02-16T12:15:55.260Z,61.1
2023-02-16T12:21:34.011Z,61.6
2023-02-16T12:27:11.213Z,61.8
2023-02-16T12:32:48.363Z,60.9
2023-02-16T12:38:28.155Z,60.2
2023-02-16T12:44:06.885Z,60.4
2023-02-16T12:49:33.186Z,58.8
2023-02-16T12:55:11.238Z,52.3
2023-02-16T13:00:48.585Z,46.8
2023-02-16T13:06:30.175Z,42.6
2023-02-16T13:12:07.912Z,48.8
2023-02-16T13:17:54.013Z,62.4
2023-02-16T13:23:36.158Z,55.7
2023-02-16T13:29:15.914Z,49.3
2023-02-16T13:34:56.240Z,44.4
2023-02-16T13:40:34.630Z,40.9
2023-02-16T13:46:12.478Z,38.1
2023-02-16T13:51:33.356Z,35.9
2023-02-16T13:56:55.099Z,34.3
2023-02-16T14:02:32.926Z,32.8
2023-02-16T14:07:54.448Z,31.6
2023-02-16T14:13:32.586Z,30.5
2023-02-16T14:19:10.517Z,29.6
2023-02-16T14:24:49.092Z,28.8
2023-02-16T14:30:26.622Z,28.1
2023-02-16T14:36:06.277Z,27.8
2023-02-16T14:42:04.935Z,27.3
2023-02-16T14:47:43.306Z,29.5
2023-02-16T14:53:21.008Z,39.3
2023-02-16T14:58:59.975Z,38.3
2023-02-16T15:04:38.048Z,29.8
2023-02-16T15:09:59.773Z,27.4
2023-02-16T15:15:36.248Z,26.4
2023-02-16T15:21:13.889Z,25.7
2023-02-16T15:26:52.222Z,25
2023-02-16T15:32:31.812Z,24.4
2023-02-16T15:37:56.205Z,23.9
2023-02-16T15:44:07.271Z,23.4
2023-02-16T15:49:47.266Z,23
2023-02-16T15:55:08.929Z,22.6
2023-02-16T16:00:45.318Z,22.3
2023-02-16T16:06:31.245Z,21.9
2023-02-16T16:11:53.177Z,21.8
2023-02-16T16:17:16.085Z,21.5
2023-02-16T16:22:55.136Z,21.3
2023-02-16T16:28:16.976Z,21.1
2023-02-16T16:33:56.019Z,20.9
2023-02-16T16:39:47.748Z,20.8
2023-02-16T16:45:09.727Z,20.6
2023-02-16T16:50:46.583Z,20.5
2023-02-16T16:56:24.467Z,20.4
2023-02-16T17:01:47.148Z,20.3
2023-02-16T17:07:24.682Z,20.2
2023-02-16T17:13:01.792Z,20.1
2023-02-16T17:18:38.976Z,20
2023-02-16T17:24:09.663Z,19.9
2023-02-16T17:29:47.658Z,19.8
2023-02-16T17:35:10.308Z,19.7
2023-02-16T17:40:47.733Z,19.6
2023-02-16T17:46:26.849Z,19.6
2023-02-16T17:51:33.228Z,19.5
2023-02-16T17:56:56.750Z,19.4
2023-02-16T18:02:21.066Z,19.4
2023-02-16T18:07:58.844Z,19.3
2023-02-16T18:13:37.108Z,19.3
2023-02-16T18:19:01.964Z,19.2
2023-02-16T18:24:54.446Z,19.2
2023-02-16T18:30:47.380Z,19.1
2023-02-16T18:36:27.162Z,19.1
2023-02-16T18:41:33.985Z,19.1
2023-02-16T18:47:12.417Z,19
2023-02-16T18:52:50.629Z,18.9
2023-02-16T18:58:27.543Z,18.9
2023-02-16T19:04:05.744Z,18.9
2023-02-16T19:09:43.005Z,18.9
2023-02-16T19:15:20.164Z,18.8
2023-02-16T19:20:58.361Z,18.8
2023-02-16T19:26:36.723Z,18.8
2023-02-16T19:31:59.277Z,18.8
2023-02-16T19:53:43.109Z,18.6
2023-02-16T19:59:05.639Z,18.6
2023-02-16T20:04:45.979Z,18.6
2023-02-16T20:10:08.091Z,18.6
2023-02-16T20:15:45.721Z,18.6
2023-02-16T20:21:07.376Z,18.6
2023-02-16T20:26:44.932Z,18.6
2023-02-16T20:32:22.848Z,18.6
2023-02-16T20:37:44.719Z,18.5
2023-02-16T20:43:06.427Z,18.6
2023-02-16T20:48:13.272Z,18.5
2023-02-16T20:53:35.079Z,18.4
2023-02-16T20:59:26.974Z,18.4
2023-02-16T21:05:04.873Z,18.3
2023-02-16T21:10:42.669Z,18.3
2023-02-16T21:16:04.979Z,18.3
2023-02-16T21:21:55.159Z,18.3
2023-02-16T21:27:32.097Z,18.3
2023-02-16T21:33:09.373Z,18.2
2023-02-16T21:38:31.245Z,18.2
2023-02-16T21:43:37.656Z,18.2
2023-02-16T21:49:15.509Z,18.1
2023-02-16T21:54:52.269Z,18.1
2023-02-16T22:00:13.870Z,18.1
2023-02-16T22:05:52.129Z,18.1
2023-02-16T22:11:30.221Z,18
2023-02-16T22:17:07.462Z,18.1
2023-02-16T22:22:48.176Z,18
2023-02-16T22:28:25.530Z,17.9
2023-02-16T22:34:03.580Z,17.9
2023-02-16T22:39:41.076Z,17.9
2023-02-16T22:45:19.226Z,17.9
2023-02-16T22:50:56.926Z,17.9
2023-02-16T22:56:36.210Z,17.9
2023-02-16T23:01:59.551Z,17.9
2023-02-16T23:07:20.637Z,17.8
2023-02-16T23:12:43.042Z,17.8
2023-02-16T23:18:20.701Z,17.8
2023-02-16T23:23:57.836Z,17.8
2023-02-16T23:29:34.886Z,17.8
2023-02-16T23:35:12.159Z,17.7
2023-02-16T23:40:49.384Z,17.7
2023-02-16T23:46:27.383Z,17.7
2023-02-16T23:52:05.313Z,17.7
2023-02-16T23:57:42.619Z,17.7
